This is the latest recevied weather packets stored in our database for station/object SM6LNJ-13. If no packets are shown the sender has not sent any weather packets the latest 10 day(s).
| Time | Temp. | Humidity | Pressure | Rain* | Wind** | Luminosity | Snow |
|---|---|---|---|---|---|---|---|
| 1777733872 | 21.67° C | 46% | 1447.3 hPa | 0 mm | - | - | - |
| 1777733512 | 21.67° C | 47% | 1446.9 hPa | 0 mm | - | - | - |
| 1777733392 | 21.67° C | 48% | 1446.7 hPa | 0 mm | - | - | - |
| 1777733272 | 21.67° C | 47% | 1446.5 hPa | 0 mm | - | - | - |
| 1777733153 | 21.11° C | 47% | 1446 hPa | 0 mm | - | - | - |
| 1777732912 | 21.11° C | 45% | 1445.4 hPa | 0 mm | - | - | - |
| 1777732672 | 20.56° C | 45% | 1444.7 hPa | 0 mm | - | - | - |
| 1777732552 | 21.11° C | 45% | 1444.9 hPa | 0 mm | - | - | - |
| 1777732192 | 23.33° C | 42% | 1450.8 hPa | 0 mm | - | - | - |
| 1777732072 | 23.33° C | 42% | 1451.2 hPa | 0 mm | - | - | - |
| 1777703025 | 14.44° C | 69% | 1429.1 hPa | 0 mm | - | - | - |
| 1777700745 | 13.33° C | 73% | 1427.6 hPa | 0 mm | - | - | - |
| 1777700625 | 13.33° C | 74% | 1427.2 hPa | 0 mm | - | - | - |
| 1777700505 | 13.33° C | 75% | 1426.8 hPa | 0 mm | - | - | - |
| 1777700385 | 13.33° C | 76% | 1426.4 hPa | 0 mm | - | - | - |
| 1777700145 | 12.78° C | 78% | 1425.5 hPa | 0 mm | - | - | - |
| 1777700025 | 12.78° C | 79% | 1425.3 hPa | 0 mm | - | - | - |
| 1777699905 | 12.22° C | 79% | 1425 hPa | 0 mm | - | - | - |
| 1777699785 | 12.22° C | 79% | 1424.7 hPa | 0 mm | - | - | - |
| 1777699665 | 12.22° C | 80% | 1424.5 hPa | 0 mm | - | - | - |
| 1777699425 | 12.22° C | 81% | 1423.9 hPa | 0 mm | - | - | - |
| 1777699305 | 11.67° C | 82% | 1423.6 hPa | 0 mm | - | - | - |
| 1777699065 | 11.67° C | 83% | 1423 hPa | 0 mm | - | - | - |
| 1777698825 | 11.11° C | 83% | 1422.4 hPa | 0 mm | - | - | - |
| 1777698705 | 11.11° C | 84% | 1422 hPa | 0 mm | - | - | - |
* Rain latest hour (hover to see other rain measurements)
** Current wind speed in m/s (hover to see current wind gust speed)